ADDS METAR Data INFO
IDs: Format: Raw Decoded Include TAF

Data at: 1957 UTC 18 Feb 2018

KGNC 181935Z AUTO 22018G24KT 10SM CLR 23/06 A2992 RMK AO2 T02300056
KGNC 181915Z AUTO 22017G23KT 10SM CLR 23/06 A2993 RMK AO2 T02320057
KGNC 181855Z AUTO 21018G23KT 10SM CLR 23/06 A2994 RMK AO2 T02260056
KGNC 181835Z AUTO 21018G21KT 10SM CLR 22/05 A2995 RMK AO2 T02230052
KGNC 181815Z AUTO 21015G22KT 10SM CLR 21/05 A2996 RMK AO2 T02110051
KGNC 181755Z AUTO 21015G19KT 10SM CLR 20/05 A2998 RMK AO2 T02010054 10201 20022
KGNC 181735Z AUTO 20016G21KT 10SM CLR 19/06 A2999 RMK AO2 T01930057
KGNC 181715Z AUTO 20013G20KT 10SM CLR 18/06 A3000 RMK AO2 T01790060
KGNC 181655Z AUTO 20010KT 10SM CLR 16/07 A3000 RMK AO2 T01630065
KGNC 181635Z AUTO 20011KT 10SM CLR 15/07 A3001 RMK AO2 T01530070
KGNC 181615Z AUTO 20009KT 10SM CLR 14/06 A3002 RMK AO2 T01370059
KGNC 181555Z AUTO 18010KT 10SM CLR 12/04 A3002 RMK AO2 T01190040
KGNC 181535Z AUTO 20007KT 10SM SCT006 10/02 A3004 RMK AO2 T00960019
KGNC 181515Z AUTO 19005KT 10SM SCT006 09/01 A3004 RMK AO2 T00850007
KGNC 181455Z AUTO 00000KT 10SM BKN006 06/M01 A3004 RMK AO2 T00621006
KGNC 181435Z AUTO 00000KT 10SM CLR 03/00 A3004 RMK AO2 T00331005
KGNC 181415Z AUTO 00000KT 10SM CLR 03/M01 A3004 RMK AO2 T00301011
KGNC 181355Z AUTO 31004KT 10SM CLR 03/M01 A3004 RMK AO2 T00301010
KGNC 181335Z AUTO 00000KT 10SM CLR 03/M01 A3004 RMK AO2 T00251010
KGNC 181315Z AUTO 32003KT 10SM CLR 03/M01 A3005 RMK AO2 T00251015
KGNC 181255Z AUTO 00000KT 10SM CLR 03/M02 A3005 RMK AO2 T00301021
KGNC 181235Z AUTO 00000KT 10SM CLR 02/M02 A3005 RMK AO2 T00221020
KGNC 181215Z AUTO 00000KT 10SM CLR 03/M02 A3006 RMK AO2 T00281024
KGNC 181155Z AUTO 00000KT 10SM CLR 03/M03 A3006 RMK AO2 T00311028 10047 20021
KGNC 181135Z AUTO 00000KT 10SM CLR 03/M03 A3006 RMK AO2 T00251029
KGNC 181115Z AUTO 00000KT 10SM CLR 02/M02 A3007 RMK AO2 T00221022
KGNC 181055Z AUTO 00000KT 10SM CLR 03/M03 A3006 RMK AO2 T00321031
KGNC 181035Z AUTO 00000KT 10SM CLR 04/M04 A3007 RMK AO2 T00381036
KGNC 181015Z AUTO 00000KT 10SM CLR 04/M04 A3008 RMK AO2 T00371037
KGNC 180955Z AUTO 00000KT 10SM CLR 04/M04 A3009 RMK AO2 T00401040
KGNC 180935Z AUTO 00000KT 10SM CLR 04/M04 A3010 RMK AO2 T00381040
KGNC 180915Z AUTO 00000KT 10SM CLR 04/M04 A3011 RMK AO2 T00371037
KGNC 180855Z AUTO 00000KT 10SM CLR 04/M04 A3012 RMK AO2 T00381037
KGNC 180835Z AUTO 00000KT 10SM CLR 04/M04 A3013 RMK AO2 T00421039
KGNC 180815Z AUTO 00000KT 10SM CLR 05/M04 A3014 RMK AO2 T00451040
KGNC 180755Z AUTO 00000KT 10SM CLR 04/M03 A3014 RMK AO2 T00431035
KGNC 180735Z AUTO 00000KT 10SM CLR 05/M04 A3014 RMK AO2 T00461040
KGNC 180715Z AUTO 00000KT 10SM CLR 04/M04 A3015 RMK AO2 T00441041
KGNC 180655Z AUTO 08003KT 10SM CLR 04/M04 A3016 RMK AO2 T00421040
KGNC 180635Z AUTO 00000KT 10SM CLR 04/M04 A3016 RMK AO2 T00421038
KGNC 180615Z AUTO 06003KT 10SM CLR 04/M03 A3016 RMK AO2 T00401035
KGNC 180555Z AUTO 08004KT 10SM CLR 04/M03 A3016 RMK AO2 T00401028 10130 20040 401660033
KGNC 180535Z AUTO 07004KT 10SM CLR 04/M02 A3017 RMK AO2 T00441024
KGNC 180515Z AUTO 09003KT 10SM CLR 05/M02 A3018 RMK AO2 T00491024
KGNC 180455Z AUTO 06004KT 10SM CLR 05/M02 A3019 RMK AO2 T00501021
KGNC 180435Z AUTO 06003KT 10SM CLR 05/M02 A3019 RMK AO2 T00511017
KGNC 180415Z AUTO 07003KT 10SM CLR 05/M02 A3019 RMK AO2 T00511016
KGNC 180355Z AUTO 09003KT 10SM CLR 05/M01 A3020 RMK AO2 T00511015
KGNC 180335Z AUTO 10003KT 10SM CLR 06/M02 A3020 RMK AO2 T00551017
KGNC 180315Z AUTO 08004KT 10SM CLR 06/M02 A3020 RMK AO2 T00601017
KGNC 180255Z AUTO 07004KT 10SM CLR 07/M02 A3020 RMK AO2 T00661018
KGNC 180235Z AUTO 06005KT 10SM CLR 08/M02 A3020 RMK AO2 T00771020
KGNC 180215Z AUTO 06006KT 10SM CLR 09/M02 A3020 RMK AO2 T00861021
KGNC 180155Z AUTO 07007KT 10SM CLR 09/M02 A3019 RMK AO2 T00901021
KGNC 180135Z AUTO 07006KT 10SM CLR 10/M02 A3019 RMK AO2 T00951021
KGNC 180115Z AUTO 07006KT 10SM CLR 10/M01 A3018 RMK AO2 T00971007
KGNC 180055Z AUTO 07006KT 10SM CLR 11/00 A3018 RMK AO2 T01050000
KGNC 180035Z AUTO 09006KT 10SM CLR 11/00 A3018 RMK AO2 T01141005
KGNC 180015Z AUTO 07008KT 10SM CLR 12/M01 A3018 RMK AO2 T01231010
KGNC 172355Z AUTO 07008KT 10SM CLR 13/M01 A3017 RMK AO2 T01311012 10166 20131
KGNC 172335Z AUTO 07010KT 10SM CLR 14/01 A3017 RMK AO2 T01360007
KGNC 172315Z AUTO 06010KT 10SM CLR 14/01 A3016 RMK AO2 T01410007
KGNC 172255Z AUTO 05008KT 10SM CLR 15/01 A3016 RMK AO2 T01460009
KGNC 172235Z AUTO 06008KT 10SM CLR 15/01 A3016 RMK AO2 T01490010
KGNC 172215Z AUTO 05011KT 10SM CLR 16/01 A3016 RMK AO2 T01550011
KGNC 172155Z AUTO 05008KT 10SM CLR 15/01 A3016 RMK AO2 T01530010
KGNC 172135Z AUTO 05006KT 10SM CLR 15/01 A3015 RMK AO2 T01530011
KGNC 172115Z AUTO 05007KT 10SM CLR 16/01 A3015 RMK AO2 T01560009
KGNC 172055Z AUTO 04007KT 10SM CLR 16/00 A3015 RMK AO2 T01560002
KGNC 172035Z AUTO 05005KT 10SM CLR 16/00 A3015 RMK AO2 T01600000
KGNC 172015Z AUTO 06007KT 10SM CLR 17/00 A3015 RMK AO2 T01650003
KGNC 171955Z AUTO 03007KT 350V060 10SM CLR 16/01 A3015 RMK AO2 T01640009
KGNC 171935Z AUTO 03006KT 10SM CLR 16/01 A3016 RMK AO2 T01570005
KGNC 171915Z AUTO 02007KT 10SM CLR 16/00 A3016 RMK AO2 T01590003
KGNC 171855Z AUTO 33010KT 10SM CLR 16/01 A3016 RMK AO2 T01620014
KGNC 171835Z AUTO 33010KT 10SM CLR 16/02 A3016 RMK AO2 T01600019
KGNC 171815Z AUTO 31010G15KT 10SM CLR 15/06 A3016 RMK AO2 T01510058
KGNC 171755Z AUTO 31007KT 10SM CLR 15/06 A3017 RMK AO2 T01460063 10146 20033
KGNC 171735Z AUTO 28007KT 10SM CLR 14/06 A3017 RMK AO2 T01350064
KGNC 171715Z AUTO 27007KT 10SM CLR 12/06 A3017 RMK AO2 T01200059
KGNC 171655Z AUTO 25009KT 10SM CLR 10/06 A3016 RMK AO2 T01000057
KGNC 171635Z AUTO 25010KT 10SM CLR 09/05 A3016 RMK AO2 T00870049
KGNC 171615Z AUTO 25008KT 10SM CLR 08/05 A3017 RMK AO2 T00790049
KGNC 171555Z AUTO 25006KT 10SM CLR 07/04 A3016 RMK AO2 T00670042
KGNC 171535Z AUTO 25007KT 10SM CLR 06/04 A3014 RMK AO2 T00600039
KGNC 171515Z AUTO 26005KT 10SM CLR 06/04 A3013 RMK AO2 T00560036
KGNC 171455Z AUTO 27005KT 10SM CLR 05/04 A3012 RMK AO2 T00530035
KGNC 171435Z AUTO 26005KT 10SM CLR 05/03 A3011 RMK AO2 T00480032
KGNC 171415Z AUTO 25008KT 10SM CLR 05/03 A3009 RMK AO2 T00450030
KGNC 171355Z AUTO 25007KT 10SM CLR 04/03 A3008 RMK AO2 T00400026
KGNC 171335Z AUTO 26006KT 10SM CLR 04/02 A3007 RMK AO2 T00350022
KGNC 171315Z AUTO 26006KT 10SM CLR 03/02 A3007 RMK AO2 T00330020
KGNC 171255Z AUTO 26006KT 10SM CLR 03/02 A3007 RMK AO2 T00330020
KGNC 171235Z AUTO 25007KT 10SM CLR 04/02 A3007 RMK AO2 T00350018
KGNC 171215Z AUTO 24008KT 10SM CLR 04/02 A3007 RMK AO2 T00370018
KGNC 171155Z AUTO 25007KT 10SM CLR 04/02 A3008 RMK AO2 60003 70005 T00360017 10053 20035
KGNC 171135Z AUTO 27007KT 10SM CLR 04/02 A3007 RMK AO2 T00360016
KGNC 171115Z AUTO 26008KT 10SM CLR 04/02 A3007 RMK AO2 T00370017
KGNC 171055Z AUTO 25006KT 10SM CLR 04/02 A3007 RMK AO2 T00400018
KGNC 171035Z AUTO 24006KT 10SM CLR 04/02 A3006 RMK AO2 T00410020
KGNC 171015Z AUTO 21008KT 10SM SCT120 04/02 A3005 RMK AO2 T00420022
KGNC 170955Z AUTO 21008KT 10SM SCT100 SCT120 05/02 A3006 RMK AO2 T00450022
KGNC 170935Z AUTO 21009KT 10SM SCT090 SCT110 05/02 A3008 RMK AO2 T00450024
KGNC 170915Z AUTO 22007KT 10SM SCT090 SCT120 04/02 A3009 RMK AO2 T00430024
KGNC 170855Z AUTO 21006KT 10SM SCT090 SCT120 05/03 A3010 RMK AO2 60003 T00450025
KGNC 170835Z AUTO 23004KT 10SM BKN090 BKN110 05/03 A3011 RMK AO2 T00450025
KGNC 170815Z AUTO 22003KT 10SM RA OVC090 05/02 A3011 RMK AO2 T00450024